In Rescue
 
Open Full Screen Window  High Contrast Mode
Wind Gusting 19 knots
12
April 20, 2024 8:43 AM CDT
Weather Information
Wind Direction
  310 °
Wind Speed
  12 kt (14 mph)
Wind Gust
  19 kt (22 mph)
Altimeter
30.35 in
Visibility
10 SM
Temperature
01° C
34° F
Dewpoint
-03° C
27° F
Humidity
75%
Sky Condition
Scattered @ 4,500 ft
Scattered @ 2,200 ft
Scattered @ 300 ft
VFR

METAR KMVE 201343Z AUTO 31012G19KT 10SM SCT003 SCT022 SCT045 01/M03 A3035 RMK AO2

FAA Disclaimer: The data displayed is for advisory purposes only and is not to be used for flight planning or operations.